sensor_id;sensor_type;location;lat;lon;timestamp;temperature;humidity
4209;DHT22;36320;48.860;2.380;2023-03-01T12:17:51;10.20;44.00
4209;DHT22;36320;48.860;2.380;2023-03-01T12:20:47;10.60;43.80
4209;DHT22;36320;48.860;2.380;2023-03-01T12:34:33;10.60;42.90
4209;DHT22;36320;48.860;2.380;2023-03-01T12:50:49;10.80;42.90
4209;DHT22;36320;48.860;2.380;2023-03-01T12:53:47;11.00;42.90
4209;DHT22;36320;48.860;2.380;2023-03-01T12:56:31;11.20;43.00
4209;DHT22;36320;48.860;2.380;2023-03-01T13:07:16;11.30;42.50
4209;DHT22;36320;48.860;2.380;2023-03-01T13:15:35;12.20;41.70
4209;DHT22;36320;48.860;2.380;2023-03-01T13:21:01;12.10;41.20
4209;DHT22;36320;48.860;2.380;2023-03-01T13:23:34;11.70;41.10
4209;DHT22;36320;48.860;2.380;2023-03-01T13:26:16;11.40;41.10
4209;DHT22;36320;48.860;2.380;2023-03-01T13:33:48;11.20;41.60
4209;DHT22;36320;48.860;2.380;2023-03-01T13:38:56;11.70;41.40
4209;DHT22;36320;48.860;2.380;2023-03-01T13:46:48;11.80;41.30
4209;DHT22;36320;48.860;2.380;2023-03-01T13:49:21;11.80;41.30
4209;DHT22;36320;48.860;2.380;2023-03-01T13:51:51;11.70;41.80
4209;DHT22;36320;48.860;2.380;2023-03-01T13:54:31;11.50;41.40
4209;DHT22;36320;48.860;2.380;2023-03-01T13:57:01;11.60;41.50
4209;DHT22;36320;48.860;2.380;2023-03-01T13:59:27;11.60;41.20
4209;DHT22;36320;48.860;2.380;2023-03-01T14:02:01;11.60;41.20
4209;DHT22;36320;48.860;2.380;2023-03-01T14:04:35;10.70;40.40
4209;DHT22;36320;48.860;2.380;2023-03-01T14:07:21;11.80;41.20
4209;DHT22;36320;48.860;2.380;2023-03-01T14:10:02;12.00;41.30
4209;DHT22;36320;48.860;2.380;2023-03-01T14:15:31;12.00;40.90
4209;DHT22;36320;48.860;2.380;2023-03-01T14:18:20;11.80;41.00
4209;DHT22;36320;48.860;2.380;2023-03-01T14:20:48;11.50;41.30
4209;DHT22;36320;48.860;2.380;2023-03-01T14:23:23;11.60;41.20
4209;DHT22;36320;48.860;2.380;2023-03-01T14:25:58;11.60;41.30
4209;DHT22;36320;48.860;2.380;2023-03-01T14:28:29;11.80;41.40
4209;DHT22;36320;48.860;2.380;2023-03-01T14:30:58;11.80;41.30
4209;DHT22;36320;48.860;2.380;2023-03-01T14:33:35;11.80;41.40
4209;DHT22;36320;48.860;2.380;2023-03-01T14:36:07;12.00;41.40
4209;DHT22;36320;48.860;2.380;2023-03-01T14:41:31;12.20;41.10
4209;DHT22;36320;48.860;2.380;2023-03-01T14:43:56;12.30;41.10
4209;DHT22;36320;48.860;2.380;2023-03-01T14:46:28;12.00;41.00
4209;DHT22;36320;48.860;2.380;2023-03-01T14:49:17;12.10;41.20
4209;DHT22;36320;48.860;2.380;2023-03-01T14:52:25;12.10;41.10
4209;DHT22;36320;48.860;2.380;2023-03-01T14:54:54;12.10;41.00
4209;DHT22;36320;48.860;2.380;2023-03-01T14:57:22;11.80;40.80
4209;DHT22;36320;48.860;2.380;2023-03-01T14:59:54;12.00;41.20
4209;DHT22;36320;48.860;2.380;2023-03-01T15:02:28;12.00;41.10
4209;DHT22;36320;48.860;2.380;2023-03-01T15:04:57;11.90;41.00
4209;DHT22;36320;48.860;2.380;2023-03-01T15:07:29;11.70;41.00
4209;DHT22;36320;48.860;2.380;2023-03-01T15:09:56;11.80;41.30
4209;DHT22;36320;48.860;2.380;2023-03-01T15:12:40;11.70;41.20
4209;DHT22;36320;48.860;2.380;2023-03-01T15:15:42;11.50;41.50
4209;DHT22;36320;48.860;2.380;2023-03-01T15:18:22;11.60;41.80
4209;DHT22;36320;48.860;2.380;2023-03-01T15:20:52;11.50;42.00
4209;DHT22;36320;48.860;2.380;2023-03-01T15:23:30;11.60;42.10
4209;DHT22;36320;48.860;2.380;2023-03-01T15:25:57;11.60;42.30
4209;DHT22;36320;48.860;2.380;2023-03-01T15:28:29;11.50;42.20
4209;DHT22;36320;48.860;2.380;2023-03-01T15:30:58;11.20;42.60
4209;DHT22;36320;48.860;2.380;2023-03-01T15:33:37;11.10;42.70
4209;DHT22;36320;48.860;2.380;2023-03-01T15:39:00;11.10;42.80
4209;DHT22;36320;48.860;2.380;2023-03-01T15:41:30;11.10;42.90
4209;DHT22;36320;48.860;2.380;2023-03-01T15:44:14;10.90;43.70
4209;DHT22;36320;48.860;2.380;2023-03-01T15:46:39;11.00;43.30
4209;DHT22;36320;48.860;2.380;2023-03-01T15:51:50;11.00;43.30
4209;DHT22;36320;48.860;2.380;2023-03-01T15:54:20;11.00;43.40
4209;DHT22;36320;48.860;2.380;2023-03-01T15:56:46;10.90;43.40
4209;DHT22;36320;48.860;2.380;2023-03-01T15:59:12;10.90;43.40
4209;DHT22;36320;48.860;2.380;2023-03-01T16:01:42;10.80;43.40
4209;DHT22;36320;48.860;2.380;2023-03-01T16:04:12;10.80;43.40
4209;DHT22;36320;48.860;2.380;2023-03-01T16:06:43;10.80;43.60
4209;DHT22;36320;48.860;2.380;2023-03-01T16:09:08;10.80;43.50
4209;DHT22;36320;48.860;2.380;2023-03-01T16:11:35;10.60;43.50
4209;DHT22;36320;48.860;2.380;2023-03-01T16:14:02;10.60;43.60
4209;DHT22;36320;48.860;2.380;2023-03-01T16:16:28;10.60;43.80
4209;DHT22;36320;48.860;2.380;2023-03-01T16:18:56;10.70;43.90
4209;DHT22;36320;48.860;2.380;2023-03-01T16:21:24;10.80;43.90
4209;DHT22;36320;48.860;2.380;2023-03-01T16:23:50;10.60;44.50
4209;DHT22;36320;48.860;2.380;2023-03-01T16:26:17;10.50;43.80
4209;DHT22;36320;48.860;2.380;2023-03-01T16:28:44;10.60;43.90
4209;DHT22;36320;48.860;2.380;2023-03-01T16:31:10;11.20;44.40
4209;DHT22;36320;48.860;2.380;2023-03-01T16:33:37;10.70;44.00
4209;DHT22;36320;48.860;2.380;2023-03-01T16:36:08;10.70;43.90
4209;DHT22;36320;48.860;2.380;2023-03-01T16:38:34;10.80;44.20
4209;DHT22;36320;48.860;2.380;2023-03-01T16:41:11;11.00;44.20
4209;DHT22;36320;48.860;2.380;2023-03-01T16:43:38;11.00;44.00
4209;DHT22;36320;48.860;2.380;2023-03-01T16:46:29;11.00;43.80
4209;DHT22;36320;48.860;2.380;2023-03-01T16:48:57;11.20;44.10
4209;DHT22;36320;48.860;2.380;2023-03-01T16:51:24;11.30;43.70
4209;DHT22;36320;48.860;2.380;2023-03-01T16:53:51;11.10;43.30
4209;DHT22;36320;48.860;2.380;2023-03-01T16:56:19;10.90;43.20
4209;DHT22;36320;48.860;2.380;2023-03-01T16:58:57;10.70;43.20
4209;DHT22;36320;48.860;2.380;2023-03-01T17:01:23;10.40;43.30
4209;DHT22;36320;48.860;2.380;2023-03-01T17:03:51;10.60;43.70
4209;DHT22;36320;48.860;2.380;2023-03-01T17:06:19;10.20;43.60
4209;DHT22;36320;48.860;2.380;2023-03-01T17:08:48;10.30;43.90
4209;DHT22;36320;48.860;2.380;2023-03-01T17:11:17;10.10;44.40
4209;DHT22;36320;48.860;2.380;2023-03-01T17:13:46;10.20;44.30
4209;DHT22;36320;48.860;2.380;2023-03-01T17:16:16;10.10;44.30
4209;DHT22;36320;48.860;2.380;2023-03-01T17:18:43;9.80;45.10
4209;DHT22;36320;48.860;2.380;2023-03-01T17:21:09;9.70;45.30
4209;DHT22;36320;48.860;2.380;2023-03-01T17:23:38;9.60;45.20
4209;DHT22;36320;48.860;2.380;2023-03-01T17:26:08;9.60;45.30
4209;DHT22;36320;48.860;2.380;2023-03-01T17:28:37;10.60;45.30
4209;DHT22;36320;48.860;2.380;2023-03-01T17:31:07;9.80;45.60
4209;DHT22;36320;48.860;2.380;2023-03-01T17:33:32;9.60;45.60
4209;DHT22;36320;48.860;2.380;2023-03-01T17:35:58;9.60;45.50
4209;DHT22;36320;48.860;2.380;2023-03-01T17:38:24;9.40;45.50
4209;DHT22;36320;48.860;2.380;2023-03-01T17:40:51;9.40;45.70
4209;DHT22;36320;48.860;2.380;2023-03-01T17:43:18;9.30;45.80
4209;DHT22;36320;48.860;2.380;2023-03-01T17:45:46;9.30;45.90
4209;DHT22;36320;48.860;2.380;2023-03-01T17:48:14;9.30;45.90
4209;DHT22;36320;48.860;2.380;2023-03-01T17:50:40;9.30;46.00
4209;DHT22;36320;48.860;2.380;2023-03-01T17:53:07;9.30;45.90
4209;DHT22;36320;48.860;2.380;2023-03-01T17:55:37;9.30;45.90
4209;DHT22;36320;48.860;2.380;2023-03-01T17:58:04;9.20;45.90
4209;DHT22;36320;48.860;2.380;2023-03-01T18:00:31;9.10;46.00
4209;DHT22;36320;48.860;2.380;2023-03-01T18:02:57;9.10;46.10
4209;DHT22;36320;48.860;2.380;2023-03-01T18:05:25;9.00;45.90
4209;DHT22;36320;48.860;2.380;2023-03-01T18:07:52;9.30;46.30
4209;DHT22;36320;48.860;2.380;2023-03-01T18:10:19;9.10;46.20
4209;DHT22;36320;48.860;2.380;2023-03-01T18:12:45;9.10;46.20
4209;DHT22;36320;48.860;2.380;2023-03-01T18:15:11;9.10;46.10
4209;DHT22;36320;48.860;2.380;2023-03-01T18:17:37;9.00;46.00
4209;DHT22;36320;48.860;2.380;2023-03-01T18:20:04;9.00;46.00
4209;DHT22;36320;48.860;2.380;2023-03-01T18:22:31;9.00;46.10
4209;DHT22;36320;48.860;2.380;2023-03-01T18:24:58;9.00;46.10
4209;DHT22;36320;48.860;2.380;2023-03-01T18:27:24;9.00;46.10
4209;DHT22;36320;48.860;2.380;2023-03-01T18:29:51;9.00;46.00
4209;DHT22;36320;48.860;2.380;2023-03-01T18:32:16;9.00;46.00
4209;DHT22;36320;48.860;2.380;2023-03-01T18:34:42;9.00;46.00
4209;DHT22;36320;48.860;2.380;2023-03-01T18:37:08;9.20;46.20
4209;DHT22;36320;48.860;2.380;2023-03-01T18:39:36;8.80;46.10
4209;DHT22;36320;48.860;2.380;2023-03-01T18:42:01;8.70;46.30
4209;DHT22;36320;48.860;2.380;2023-03-01T18:44:28;8.80;46.30
4209;DHT22;36320;48.860;2.380;2023-03-01T18:46:54;8.90;46.20
4209;DHT22;36320;48.860;2.380;2023-03-01T18:49:23;9.00;46.10
4209;DHT22;36320;48.860;2.380;2023-03-01T18:51:51;8.90;46.00
4209;DHT22;36320;48.860;2.380;2023-03-01T18:54:19;8.80;45.90
4209;DHT22;36320;48.860;2.380;2023-03-01T18:56:45;8.80;46.00
4209;DHT22;36320;48.860;2.380;2023-03-01T18:59:11;9.00;46.20
4209;DHT22;36320;48.860;2.380;2023-03-01T19:01:37;8.90;46.10
4209;DHT22;36320;48.860;2.380;2023-03-01T19:04:03;9.00;46.10
4209;DHT22;36320;48.860;2.380;2023-03-01T19:06:31;9.00;46.00
4209;DHT22;36320;48.860;2.380;2023-03-01T19:08:58;8.90;46.00
4209;DHT22;36320;48.860;2.380;2023-03-01T19:11:25;8.90;46.10
4209;DHT22;36320;48.860;2.380;2023-03-01T19:14:01;8.80;45.90
4209;DHT22;36320;48.860;2.380;2023-03-01T19:16:30;6.40;44.20
4209;DHT22;36320;48.860;2.380;2023-03-01T19:18:58;10.10;46.10
4209;DHT22;36320;48.860;2.380;2023-03-01T19:21:27;8.80;46.10
4209;DHT22;36320;48.860;2.380;2023-03-01T19:24:01;8.80;46.10
4209;DHT22;36320;48.860;2.380;2023-03-01T19:26:29;8.80;46.10
4209;DHT22;36320;48.860;2.380;2023-03-01T19:28:55;8.70;46.10
4209;DHT22;36320;48.860;2.380;2023-03-01T19:31:27;8.70;46.10
4209;DHT22;36320;48.860;2.380;2023-03-01T19:33:54;8.70;46.10
4209;DHT22;36320;48.860;2.380;2023-03-01T19:36:20;8.60;46.10
4209;DHT22;36320;48.860;2.380;2023-03-01T19:38:46;8.60;46.30
4209;DHT22;36320;48.860;2.380;2023-03-01T19:41:15;9.70;47.20
4209;DHT22;36320;48.860;2.380;2023-03-01T19:43:43;8.60;46.80
4209;DHT22;36320;48.860;2.380;2023-03-01T19:46:11;8.60;46.30
4209;DHT22;36320;48.860;2.380;2023-03-01T19:48:37;8.70;46.30
4209;DHT22;36320;48.860;2.380;2023-03-01T19:51:05;8.90;46.50
4209;DHT22;36320;48.860;2.380;2023-03-01T19:53:32;8.60;46.30
4209;DHT22;36320;48.860;2.380;2023-03-01T19:56:00;8.60;46.30
4209;DHT22;36320;48.860;2.380;2023-03-01T19:58:28;8.60;46.40
4209;DHT22;36320;48.860;2.380;2023-03-01T20:00:54;8.50;46.30
4209;DHT22;36320;48.860;2.380;2023-03-01T20:03:25;8.10;46.70
4209;DHT22;36320;48.860;2.380;2023-03-01T20:05:52;8.50;46.40
4209;DHT22;36320;48.860;2.380;2023-03-01T20:08:17;8.50;46.50
4209;DHT22;36320;48.860;2.380;2023-03-01T20:10:43;8.40;46.50
4209;DHT22;36320;48.860;2.380;2023-03-01T20:13:09;8.40;46.60
4209;DHT22;36320;48.860;2.380;2023-03-01T20:15:35;8.40;46.60
4209;DHT22;36320;48.860;2.380;2023-03-01T20:18:02;8.40;46.60
4209;DHT22;36320;48.860;2.380;2023-03-01T20:20:27;8.40;46.70
4209;DHT22;36320;48.860;2.380;2023-03-01T20:22:53;8.30;46.60
4209;DHT22;36320;48.860;2.380;2023-03-01T20:25:19;8.30;46.60
4209;DHT22;36320;48.860;2.380;2023-03-01T20:27:45;8.20;47.30
4209;DHT22;36320;48.860;2.380;2023-03-01T20:30:13;8.30;46.80
4209;DHT22;36320;48.860;2.380;2023-03-01T20:32:41;8.30;46.80
4209;DHT22;36320;48.860;2.380;2023-03-01T20:35:08;8.30;46.70
4209;DHT22;36320;48.860;2.380;2023-03-01T20:37:34;8.30;46.90
4209;DHT22;36320;48.860;2.380;2023-03-01T20:40:01;8.40;46.90
4209;DHT22;36320;48.860;2.380;2023-03-01T20:42:26;8.20;46.90
4209;DHT22;36320;48.860;2.380;2023-03-01T20:44:52;8.50;47.10
4209;DHT22;36320;48.860;2.380;2023-03-01T20:47:20;8.10;46.90
4209;DHT22;36320;48.860;2.380;2023-03-01T20:49:58;8.20;47.10
4209;DHT22;36320;48.860;2.380;2023-03-01T21:00:28;8.20;47.20
4209;DHT22;36320;48.860;2.380;2023-03-01T21:03:51;9.50;48.50
4209;DHT22;36320;48.860;2.380;2023-03-01T21:06:52;8.60;47.30
4209;DHT22;36320;48.860;2.380;2023-03-01T21:11:53;8.10;47.30
4209;DHT22;36320;48.860;2.380;2023-03-01T21:14:35;8.00;47.30
4209;DHT22;36320;48.860;2.380;2023-03-01T21:17:15;8.10;47.60
4209;DHT22;36320;48.860;2.380;2023-03-01T21:20:00;8.20;47.80
4209;DHT22;36320;48.860;2.380;2023-03-01T21:22:36;8.00;47.80
4209;DHT22;36320;48.860;2.380;2023-03-01T21:25:03;6.40;46.30
4209;DHT22;36320;48.860;2.380;2023-03-01T21:27:38;8.10;48.10
4209;DHT22;36320;48.860;2.380;2023-03-01T21:58:37;7.70;48.30
4209;DHT22;36320;48.860;2.380;2023-03-01T22:01:21;5.30;46.40
4209;DHT22;36320;48.860;2.380;2023-03-01T22:04:16;6.20;47.50
4209;DHT22;36320;48.860;2.380;2023-03-01T22:06:46;7.50;48.70
4209;DHT22;36320;48.860;2.380;2023-03-01T22:09:32;5.80;47.40
4209;DHT22;36320;48.860;2.380;2023-03-01T22:12:07;8.60;49.70
4209;DHT22;36320;48.860;2.380;2023-03-01T22:14:36;7.60;48.70
4209;DHT22;36320;48.860;2.380;2023-03-01T22:17:05;7.70;49.00
4209;DHT22;36320;48.860;2.380;2023-03-01T22:19:31;7.60;48.90
4209;DHT22;36320;48.860;2.380;2023-03-01T22:21:57;7.70;48.90
4209;DHT22;36320;48.860;2.380;2023-03-01T22:29:36;7.60;48.70
4209;DHT22;36320;48.860;2.380;2023-03-01T22:32:14;7.60;48.70
4209;DHT22;36320;48.860;2.380;2023-03-01T22:35:17;7.70;48.80
4209;DHT22;36320;48.860;2.380;2023-03-01T22:38:10;8.00;49.00
4209;DHT22;36320;48.860;2.380;2023-03-01T23:06:45;7.50;49.30
4209;DHT22;36320;48.860;2.380;2023-03-01T23:09:28;6.60;48.60
4209;DHT22;36320;48.860;2.380;2023-03-01T23:11:59;7.30;49.70
4209;DHT22;36320;48.860;2.380;2023-03-01T23:14:29;7.50;49.80
4209;DHT22;36320;48.860;2.380;2023-03-01T23:20:25;7.10;49.80
4209;DHT22;36320;48.860;2.380;2023-03-01T23:28:18;6.60;50.60
4209;DHT22;36320;48.860;2.380;2023-03-01T23:31:00;6.50;50.70
4209;DHT22;36320;48.860;2.380;2023-03-01T23:33:29;6.70;50.90
4209;DHT22;36320;48.860;2.380;2023-03-01T23:35:59;7.00;50.70
4209;DHT22;36320;48.860;2.380;2023-03-01T23:38:28;6.70;50.60
